Audrey — PD9331 — position and weather

sailwx.info

Track history (hours):
 
Tides and Currents Weather Stations Pressure Air Temp Water Temp Dewpoint Dewpoint Depression Visibility Wind Speed Wind Dir Waves Ship Positions

Audrey

Last reported at 2014-Dec-19 08:32 UTC. Time now 2014-Dec-20 10:25 UTC.
Position N 51°50' E 004°30'.

Length 85 m; draft 2.3 m.

Type: Other ship. MMSI: 244660106.

Date/timePositionNaut miles runAvg speedWind from/ knotsBaromVisibWave heightAir tempDewpointWater temp
2014-Dec-19 08:32N 51°50' E 004°30'  
2014-Dec-14 07:14N 49°50' E 008°23'20834.3
2014-Dec-14 01:11N 51°58' E 004°02'0 0.1
2014-Dec-13 20:17N 51°58' E 004°02'1 0.0
2014-Dec-12 21:20N 51°59' E 004°02'12818.4
2014-Dec-12 14:24N 50°54' E 006°59'13 3.9
2014-Dec-12 11:10N 51°06' E 006°53'3 4.6
2014-Dec-12 10:33N 51°09' E 006°51'2 2.3
2014-Dec-12 09:33N 51°10' E 006°48'4 3.7
2014-Dec-12 08:34N 51°13' E 006°44'3 2.6
2014-Dec-12 07:33N 51°15' E 006°45'4 3.6
2014-Dec-12 06:33N 51°19' E 006°44'4 3.2
2014-Dec-12 05:19N 51°22' E 006°41'27 1.8
2014-Dec-11 14:17N 51°46' E 006°20'6 5.7
2014-Dec-11 13:10N 51°50' E 006°12'4 6.1
2014-Dec-11 12:29N 51°51' E 006°05'10 5.0
2014-Dec-11 10:24N 51°52' E 005°49'5 6.3
2014-Dec-11 09:34N 51°54' E 005°40'6 6.1
2014-Dec-11 08:33N 51°53' E 005°30'4 4.2
2014-Dec-11 07:33N 51°56' E 005°25'5 5.0
2014-Dec-11 06:34N 51°58' E 005°18'8 7.6
2014-Dec-11 05:33N 52°02' E 005°07'8 7.8
2014-Dec-11 04:34N 52°09' E 005°01'2 2.3
2014-Dec-11 03:33N 52°11' E 004°60'0 0.0
2014-Dec-11 02:33N 52°11' E 004°60'0 0.0
2014-Dec-11 01:33N 52°11' E 004°60'0 0.0
2014-Dec-11 00:33N 52°11' E 004°60'0 0.0
2014-Dec-10 23:33N 52°11' E 004°60'0 0.0
2014-Dec-10 22:33N 52°11' E 004°60'0 0.0
2014-Dec-10 21:33N 52°11' E 004°60'0 0.0
2014-Dec-10 20:33N 52°11' E 004°60'0 0.0
2014-Dec-10 19:33N 52°11' E 004°60'0 0.0
2014-Dec-10 18:33N 52°11' E 004°60'8 7.5
2014-Dec-10 17:33N 52°18' E 005°01'7 6.9
2014-Dec-10 16:33N 52°24' E 004°54'2 2.4
2014-Dec-10 15:33N 52°24' E 004°50'0 0.0
2014-Dec-10 14:33N 52°24' E 004°50'0 0.0
2014-Dec-10 13:33N 52°24' E 004°50'0 0.0
2014-Dec-10 12:33N 52°24' E 004°50'0 0.0
2014-Dec-10 11:33N 52°24' E 004°50'1 0.6
2014-Dec-10 10:33N 52°24' E 004°49'0 0.0
2014-Dec-10 09:33N 52°24' E 004°49'0 0.0
2014-Dec-10 08:33N 52°24' E 004°49'0 0.0
2014-Dec-10 07:33N 52°24' E 004°49'0 0.0
2014-Dec-10 06:33N 52°24' E 004°49'0 0.0
2014-Dec-10 05:33N 52°24' E 004°49'0 0.0
2014-Dec-10 04:33N 52°24' E 004°49'0 0.0
2014-Dec-10 03:33N 52°24' E 004°49'0 0.0
2014-Dec-10 02:33N 52°24' E 004°49'0 0.0
2014-Dec-10 01:33N 52°24' E 004°49'0 0.0
2014-Dec-10 00:33N 52°24' E 004°49'0 0.0
2014-Dec-09 23:33N 52°24' E 004°49'0 0.0
2014-Dec-09 22:33N 52°24' E 004°49'0 0.0
2014-Dec-09 21:33N 52°24' E 004°49'0 0.0
2014-Dec-09 20:33N 52°24' E 004°49'2 2.0
2014-Dec-09 19:33N 52°25' E 004°51'8 7.8
2014-Dec-09 18:33N 52°20' E 005°01'9 9.1
2014-Dec-09 17:33N 52°11' E 004°60'8 8.5
2014-Dec-09 16:33N 52°03' E 005°06'3 3.3
2014-Dec-09 15:33N 52°00' E 005°05'8 8.0
2014-Dec-09 14:33N 51°56' E 004°54'9 9.0
2014-Dec-09 13:33N 51°53' E 004°40'4 4.3
2014-Dec-09 12:33N 51°49' E 004°41'0 0.0
2014-Dec-09 11:33N 51°49' E 004°41'0 0.0
2014-Dec-09 10:33N 51°49' E 004°41'0 0.0
2014-Dec-09 09:33N 51°49' E 004°41'0 0.0
2014-Dec-09 08:34N 51°49' E 004°41'  
Track history (hours):
 
Tides and Currents Weather Stations Pressure Air Temp Water Temp Dewpoint Dewpoint Depression Visibility Wind Speed Wind Dir Waves Ship Positions

Audrey

Last reported at 2014-Dec-19 08:32 UTC. Time now 2014-Dec-20 10:25 UTC.
Position N 51°50' E 004°30'.

Length 85 m; draft 2.3 m.

Type: Other ship. MMSI: 244660106.

Date/timePositionNaut miles runAvg speedWind from/ knotsBaromVisibWave heightAir tempDewpointWater temp
2014-Dec-19 08:32N 51°50' E 004°30'  
2014-Dec-14 07:14N 49°50' E 008°23'20834.3
2014-Dec-14 01:11N 51°58' E 004°02'0 0.1
2014-Dec-13 20:17N 51°58' E 004°02'1 0.0
2014-Dec-12 21:20N 51°59' E 004°02'12818.4
2014-Dec-12 14:24N 50°54' E 006°59'13 3.9
2014-Dec-12 11:10N 51°06' E 006°53'3 4.6
2014-Dec-12 10:33N 51°09' E 006°51'2 2.3
2014-Dec-12 09:33N 51°10' E 006°48'4 3.7
2014-Dec-12 08:34N 51°13' E 006°44'3 2.6
2014-Dec-12 07:33N 51°15' E 006°45'4 3.6
2014-Dec-12 06:33N 51°19' E 006°44'4 3.2
2014-Dec-12 05:19N 51°22' E 006°41'27 1.8
2014-Dec-11 14:17N 51°46' E 006°20'6 5.7
2014-Dec-11 13:10N 51°50' E 006°12'4 6.1
2014-Dec-11 12:29N 51°51' E 006°05'10 5.0
2014-Dec-11 10:24N 51°52' E 005°49'5 6.3
2014-Dec-11 09:34N 51°54' E 005°40'6 6.1
2014-Dec-11 08:33N 51°53' E 005°30'4 4.2
2014-Dec-11 07:33N 51°56' E 005°25'5 5.0
2014-Dec-11 06:34N 51°58' E 005°18'8 7.6
2014-Dec-11 05:33N 52°02' E 005°07'8 7.8
2014-Dec-11 04:34N 52°09' E 005°01'2 2.3
2014-Dec-11 03:33N 52°11' E 004°60'0 0.0
2014-Dec-11 02:33N 52°11' E 004°60'0 0.0
2014-Dec-11 01:33N 52°11' E 004°60'0 0.0
2014-Dec-11 00:33N 52°11' E 004°60'0 0.0
2014-Dec-10 23:33N 52°11' E 004°60'0 0.0
2014-Dec-10 22:33N 52°11' E 004°60'0 0.0
2014-Dec-10 21:33N 52°11' E 004°60'0 0.0
2014-Dec-10 20:33N 52°11' E 004°60'0 0.0
2014-Dec-10 19:33N 52°11' E 004°60'0 0.0
2014-Dec-10 18:33N 52°11' E 004°60'8 7.5
2014-Dec-10 17:33N 52°18' E 005°01'7 6.9
2014-Dec-10 16:33N 52°24' E 004°54'2 2.4
2014-Dec-10 15:33N 52°24' E 004°50'0 0.0
2014-Dec-10 14:33N 52°24' E 004°50'0 0.0
2014-Dec-10 13:33N 52°24' E 004°50'0 0.0
2014-Dec-10 12:33N 52°24' E 004°50'0 0.0
2014-Dec-10 11:33N 52°24' E 004°50'1 0.6
2014-Dec-10 10:33N 52°24' E 004°49'0 0.0
2014-Dec-10 09:33N 52°24' E 004°49'0 0.0
2014-Dec-10 08:33N 52°24' E 004°49'0 0.0
2014-Dec-10 07:33N 52°24' E 004°49'0 0.0
2014-Dec-10 06:33N 52°24' E 004°49'0 0.0
2014-Dec-10 05:33N 52°24' E 004°49'0 0.0
2014-Dec-10 04:33N 52°24' E 004°49'0 0.0
2014-Dec-10 03:33N 52°24' E 004°49'0 0.0
2014-Dec-10 02:33N 52°24' E 004°49'0 0.0
2014-Dec-10 01:33N 52°24' E 004°49'0 0.0
2014-Dec-10 00:33N 52°24' E 004°49'0 0.0
2014-Dec-09 23:33N 52°24' E 004°49'0 0.0
2014-Dec-09 22:33N 52°24' E 004°49'0 0.0
2014-Dec-09 21:33N 52°24' E 004°49'0 0.0
2014-Dec-09 20:33N 52°24' E 004°49'2 2.0
2014-Dec-09 19:33N 52°25' E 004°51'8 7.8
2014-Dec-09 18:33N 52°20' E 005°01'9 9.1
2014-Dec-09 17:33N 52°11' E 004°60'8 8.5
2014-Dec-09 16:33N 52°03' E 005°06'3 3.3
2014-Dec-09 15:33N 52°00' E 005°05'8 8.0
2014-Dec-09 14:33N 51°56' E 004°54'9 9.0
2014-Dec-09 13:33N 51°53' E 004°40'4 4.3
2014-Dec-09 12:33N 51°49' E 004°41'0 0.0
2014-Dec-09 11:33N 51°49' E 004°41'0 0.0
2014-Dec-09 10:33N 51°49' E 004°41'0 0.0
2014-Dec-09 09:33N 51°49' E 004°41'0 0.0
2014-Dec-09 08:34N 51°49' E 004°41'  

Dump ship's entire track history